sensor_id;sensor_type;location;lat;lon;timestamp;pressure;altitude;pressure_sealevel;temperature;humidity
39613;BME280;25303;48.896;13.342;2024-02-23T00:00:20;90719.75;;;7.93;83.67
39613;BME280;25303;48.896;13.342;2024-02-23T00:10:23;90731.59;;;7.94;83.95
39613;BME280;25303;48.896;13.342;2024-02-23T00:20:28;90749.72;;;7.92;83.98
39613;BME280;25303;48.896;13.342;2024-02-23T00:30:32;90776.88;;;7.86;84.60
39613;BME280;25303;48.896;13.342;2024-02-23T00:40:36;90827.94;;;7.88;84.54
39613;BME280;25303;48.896;13.342;2024-02-23T00:50:39;90841.09;;;7.78;84.83
39613;BME280;25303;48.896;13.342;2024-02-23T01:00:44;90855.75;;;7.56;85.69
39613;BME280;25303;48.896;13.342;2024-02-23T01:10:47;90905.53;;;7.53;85.71
39613;BME280;25303;48.896;13.342;2024-02-23T01:20:51;90920.84;;;7.18;83.83
39613;BME280;25303;48.896;13.342;2024-02-23T01:30:54;90928.44;;;6.68;81.36
39613;BME280;25303;48.896;13.342;2024-02-23T01:40:59;90920.03;;;6.52;81.30
39613;BME280;25303;48.896;13.342;2024-02-23T01:51:03;90919.06;;;6.38;81.85
39613;BME280;25303;48.896;13.342;2024-02-23T02:01:07;90923.06;;;6.26;82.41
39613;BME280;25303;48.896;13.342;2024-02-23T02:11:10;90911.72;;;6.29;82.35
39613;BME280;25303;48.896;13.342;2024-02-23T02:21:15;90911.72;;;6.29;82.89
39613;BME280;25303;48.896;13.342;2024-02-23T02:31:18;90916.34;;;6.40;83.08
39613;BME280;25303;48.896;13.342;2024-02-23T02:41:23;90918.56;;;6.28;84.85
39613;BME280;25303;48.896;13.342;2024-02-23T02:51:27;90928.59;;;6.30;85.05
39613;BME280;25303;48.896;13.342;2024-02-23T03:01:31;90934.31;;;6.47;84.04
39613;BME280;25303;48.896;13.342;2024-02-23T03:11:35;90938.22;;;6.13;85.27
39613;BME280;25303;48.896;13.342;2024-02-23T03:21:40;90937.53;;;6.04;84.85
39613;BME280;25303;48.896;13.342;2024-02-23T03:31:43;90962.47;;;6.17;84.34
39613;BME280;25303;48.896;13.342;2024-02-23T03:41:48;91002.66;;;5.85;83.28
39613;BME280;25303;48.896;13.342;2024-02-23T03:51:51;91043.31;;;5.48;82.05
39613;BME280;25303;48.896;13.342;2024-02-23T04:01:55;91067.88;;;5.26;81.12
39613;BME280;25303;48.896;13.342;2024-02-23T04:11:58;91071.78;;;5.13;80.79
39613;BME280;25303;48.896;13.342;2024-02-23T04:22:03;91085.38;;;5.06;80.68
39613;BME280;25303;48.896;13.342;2024-02-23T04:32:07;91101.31;;;4.68;80.14
39613;BME280;25303;48.896;13.342;2024-02-23T04:42:11;91110.91;;;4.49;79.90
39613;BME280;25303;48.896;13.342;2024-02-23T04:52:14;91101.72;;;4.32;79.58
39613;BME280;25303;48.896;13.342;2024-02-23T05:02:18;91081.97;;;4.34;79.75
39613;BME280;25303;48.896;13.342;2024-02-23T05:12:21;91081.03;;;4.26;79.54
39613;BME280;25303;48.896;13.342;2024-02-23T05:22:26;91098.25;;;4.16;79.70
39613;BME280;25303;48.896;13.342;2024-02-23T05:32:29;91104.16;;;4.08;79.29
39613;BME280;25303;48.896;13.342;2024-02-23T05:42:33;91105.22;;;4.22;78.25
39613;BME280;25303;48.896;13.342;2024-02-23T05:52:40;91118.97;;;3.88;78.95
39613;BME280;25303;48.896;13.342;2024-02-23T06:02:44;91122.75;;;3.76;79.65
39613;BME280;25303;48.896;13.342;2024-02-23T06:12:48;91133.25;;;3.73;80.01
39613;BME280;25303;48.896;13.342;2024-02-23T06:22:54;91141.06;;;3.71;80.33
39613;BME280;25303;48.896;13.342;2024-02-23T06:32:57;91160.78;;;3.69;80.68
39613;BME280;25303;48.896;13.342;2024-02-23T06:43:02;91148.84;;;3.78;81.01
39613;BME280;25303;48.896;13.342;2024-02-23T06:53:05;91164.44;;;3.91;80.93
39613;BME280;25303;48.896;13.342;2024-02-23T07:03:09;91162.38;;;4.03;81.00
39613;BME280;25303;48.896;13.342;2024-02-23T07:13:13;91188.97;;;4.17;80.25
39613;BME280;25303;48.896;13.342;2024-02-23T07:23:17;91198.53;;;4.15;80.34
39613;BME280;25303;48.896;13.342;2024-02-23T07:33:20;91203.63;;;4.32;80.45
39613;BME280;25303;48.896;13.342;2024-02-23T07:43:25;91223.53;;;4.45;80.25
39613;BME280;25303;48.896;13.342;2024-02-23T07:53:30;91211.41;;;4.55;80.29
39613;BME280;25303;48.896;13.342;2024-02-23T08:03:35;91215.19;;;4.67;79.94
39613;BME280;25303;48.896;13.342;2024-02-23T08:13:41;91218.38;;;4.78;79.66
39613;BME280;25303;48.896;13.342;2024-02-23T08:23:46;91215.50;;;4.81;79.10
39613;BME280;25303;48.896;13.342;2024-02-23T08:33:49;91223.81;;;4.75;78.70
39613;BME280;25303;48.896;13.342;2024-02-23T08:43:53;91227.41;;;4.89;78.56
39613;BME280;25303;48.896;13.342;2024-02-23T08:53:57;91213.09;;;4.88;78.25
39613;BME280;25303;48.896;13.342;2024-02-23T09:04:06;91181.69;;;4.95;78.35
39613;BME280;25303;48.896;13.342;2024-02-23T09:14:09;91183.34;;;5.20;77.44
39613;BME280;25303;48.896;13.342;2024-02-23T09:24:13;91197.41;;;5.15;77.77
39613;BME280;25303;48.896;13.342;2024-02-23T09:34:16;91181.91;;;5.25;77.97
39613;BME280;25303;48.896;13.342;2024-02-23T09:44:21;91189.13;;;5.76;78.07
39613;BME280;25303;48.896;13.342;2024-02-23T09:54:25;91195.03;;;6.47;77.88
39613;BME280;25303;48.896;13.342;2024-02-23T10:04:30;91216.56;;;6.52;75.72
39613;BME280;25303;48.896;13.342;2024-02-23T10:14:33;91251.81;;;6.42;75.01
39613;BME280;25303;48.896;13.342;2024-02-23T10:24:37;91250.22;;;6.41;75.65
39613;BME280;25303;48.896;13.342;2024-02-23T10:34:42;91252.25;;;6.46;75.76
39613;BME280;25303;48.896;13.342;2024-02-23T10:44:47;91233.41;;;6.47;74.10
39613;BME280;25303;48.896;13.342;2024-02-23T10:54:51;91238.84;;;6.20;72.47
39613;BME280;25303;48.896;13.342;2024-02-23T11:04:57;91245.25;;;6.16;73.35
39613;BME280;25303;48.896;13.342;2024-02-23T11:15:01;91215.06;;;6.20;73.84
39613;BME280;25303;48.896;13.342;2024-02-23T11:25:07;91216.81;;;6.19;73.10
39613;BME280;25303;48.896;13.342;2024-02-23T11:35:13;91219.78;;;6.08;72.60
39613;BME280;25303;48.896;13.342;2024-02-23T11:45:18;91212.44;;;6.05;72.21
39613;BME280;25303;48.896;13.342;2024-02-23T11:55:21;91208.31;;;6.04;72.29
39613;BME280;25303;48.896;13.342;2024-02-23T12:05:27;91205.16;;;6.40;71.69
39613;BME280;25303;48.896;13.342;2024-02-23T12:15:30;91185.34;;;6.42;70.39
39613;BME280;25303;48.896;13.342;2024-02-23T12:25:35;91192.81;;;6.29;69.70
39613;BME280;25303;48.896;13.342;2024-02-23T12:35:40;91212.09;;;6.31;69.42
39613;BME280;25303;48.896;13.342;2024-02-23T12:45:45;91217.25;;;6.23;69.49
39613;BME280;25303;48.896;13.342;2024-02-23T12:55:50;91208.53;;;6.17;69.74
39613;BME280;25303;48.896;13.342;2024-02-23T13:05:55;91219.38;;;5.88;68.47
39613;BME280;25303;48.896;13.342;2024-02-23T13:15:59;91213.06;;;5.75;68.02
39613;BME280;25303;48.896;13.342;2024-02-23T13:26:03;91188.09;;;5.62;68.58
39613;BME280;25303;48.896;13.342;2024-02-23T13:36:07;91187.84;;;5.49;68.60
39613;BME280;25303;48.896;13.342;2024-02-23T13:46:11;91214.06;;;5.35;69.48
39613;BME280;25303;48.896;13.342;2024-02-23T13:56:14;91205.94;;;5.31;69.58
39613;BME280;25303;48.896;13.342;2024-02-23T14:06:19;91198.03;;;5.17;70.42
39613;BME280;25303;48.896;13.342;2024-02-23T14:16:22;91199.88;;;4.92;70.91
39613;BME280;25303;48.896;13.342;2024-02-23T14:26:26;91199.69;;;4.94;71.05
39613;BME280;25303;48.896;13.342;2024-02-23T14:36:31;91209.25;;;4.92;70.99
39613;BME280;25303;48.896;13.342;2024-02-23T14:46:37;91170.91;;;4.77;70.66
39613;BME280;25303;48.896;13.342;2024-02-23T14:56:44;91177.91;;;4.66;71.76
39613;BME280;25303;48.896;13.342;2024-02-23T15:06:50;91164.25;;;4.51;72.90
39613;BME280;25303;48.896;13.342;2024-02-23T15:16:53;91171.91;;;4.59;72.48
39613;BME280;25303;48.896;13.342;2024-02-23T15:26:58;91184.97;;;4.39;72.26
39613;BME280;25303;48.896;13.342;2024-02-23T15:37:01;91215.38;;;4.41;72.50
39613;BME280;25303;48.896;13.342;2024-02-23T15:47:10;91221.75;;;4.29;72.82
39613;BME280;25303;48.896;13.342;2024-02-23T15:57:13;91217.00;;;4.34;72.99
39613;BME280;25303;48.896;13.342;2024-02-23T16:07:17;91183.56;;;4.29;72.54
39613;BME280;25303;48.896;13.342;2024-02-23T16:17:20;91166.19;;;4.16;72.83
39613;BME280;25303;48.896;13.342;2024-02-23T16:27:25;91160.97;;;4.01;72.47
39613;BME280;25303;48.896;13.342;2024-02-23T16:37:29;91166.06;;;3.84;72.99
39613;BME280;25303;48.896;13.342;2024-02-23T16:47:34;91175.06;;;3.54;73.92
39613;BME280;25303;48.896;13.342;2024-02-23T16:57:37;91179.69;;;3.58;74.11
39613;BME280;25303;48.896;13.342;2024-02-23T17:07:41;91172.84;;;3.59;73.93
39613;BME280;25303;48.896;13.342;2024-02-23T17:17:44;91175.53;;;3.57;74.17
39613;BME280;25303;48.896;13.342;2024-02-23T17:27:50;91167.44;;;3.54;74.56
39613;BME280;25303;48.896;13.342;2024-02-23T17:37:54;91150.09;;;3.57;74.87
39613;BME280;25303;48.896;13.342;2024-02-23T17:47:58;91165.53;;;3.56;74.63
39613;BME280;25303;48.896;13.342;2024-02-23T17:58:02;91165.16;;;3.34;74.83
39613;BME280;25303;48.896;13.342;2024-02-23T18:08:21;91171.38;;;3.40;74.49
39613;BME280;25303;48.896;13.342;2024-02-23T18:18:24;91194.91;;;3.33;74.80
39613;BME280;25303;48.896;13.342;2024-02-23T18:28:30;91183.28;;;3.31;75.08
39613;BME280;25303;48.896;13.342;2024-02-23T18:38:33;91177.38;;;3.22;74.64
39613;BME280;25303;48.896;13.342;2024-02-23T18:48:39;91187.22;;;3.17;75.01
39613;BME280;25303;48.896;13.342;2024-02-23T18:58:42;91170.19;;;3.17;75.12
39613;BME280;25303;48.896;13.342;2024-02-23T19:08:46;91112.66;;;3.08;74.87
39613;BME280;25303;48.896;13.342;2024-02-23T19:18:50;91141.28;;;3.10;75.57
39613;BME280;25303;48.896;13.342;2024-02-23T19:28:54;91158.75;;;3.13;75.20
39613;BME280;25303;48.896;13.342;2024-02-23T19:38:57;91129.63;;;3.08;75.27
39613;BME280;25303;48.896;13.342;2024-02-23T19:49:02;91153.81;;;3.12;75.16
39613;BME280;25303;48.896;13.342;2024-02-23T19:59:05;91170.38;;;3.16;74.75
39613;BME280;25303;48.896;13.342;2024-02-23T20:09:10;91134.91;;;3.06;75.47
39613;BME280;25303;48.896;13.342;2024-02-23T20:19:14;91124.75;;;3.14;75.14
39613;BME280;25303;48.896;13.342;2024-02-23T20:29:18;91113.00;;;3.13;75.38
39613;BME280;25303;48.896;13.342;2024-02-23T20:39:22;91135.88;;;3.13;75.31
39613;BME280;25303;48.896;13.342;2024-02-23T20:49:27;91116.16;;;3.07;75.04
39613;BME280;25303;48.896;13.342;2024-02-23T20:59:32;91113.72;;;2.89;75.85
39613;BME280;25303;48.896;13.342;2024-02-23T21:09:37;91112.75;;;2.90;76.12
39613;BME280;25303;48.896;13.342;2024-02-23T21:19:40;91122.13;;;2.89;76.32
39613;BME280;25303;48.896;13.342;2024-02-23T21:29:45;91129.28;;;2.86;76.17
39613;BME280;25303;48.896;13.342;2024-02-23T21:39:48;91167.69;;;2.83;76.39
39613;BME280;25303;48.896;13.342;2024-02-23T21:49:54;91155.19;;;2.55;76.97
39613;BME280;25303;48.896;13.342;2024-02-23T21:59:57;91174.22;;;2.51;77.10
39613;BME280;25303;48.896;13.342;2024-02-23T22:10:02;91202.50;;;2.30;78.12
39613;BME280;25303;48.896;13.342;2024-02-23T22:20:06;91182.69;;;2.41;77.77
39613;BME280;25303;48.896;13.342;2024-02-23T22:30:12;91172.78;;;2.48;77.70
39613;BME280;25303;48.896;13.342;2024-02-23T22:40:15;91163.88;;;2.52;77.46
39613;BME280;25303;48.896;13.342;2024-02-23T22:50:19;91137.41;;;2.55;77.71
39613;BME280;25303;48.896;13.342;2024-02-23T23:00:23;91149.78;;;2.58;77.71
39613;BME280;25303;48.896;13.342;2024-02-23T23:10:29;91162.25;;;2.69;77.20
39613;BME280;25303;48.896;13.342;2024-02-23T23:20:36;91168.09;;;2.70;76.84
39613;BME280;25303;48.896;13.342;2024-02-23T23:30:41;91159.41;;;2.72;77.06
39613;BME280;25303;48.896;13.342;2024-02-23T23:40:44;91147.59;;;2.63;76.55
39613;BME280;25303;48.896;13.342;2024-02-23T23:50:48;91155.81;;;2.57;76.65
